createdAt,value
2022-11-29T00:01:25.592Z,5.70
2022-11-29T00:03:53.674Z,5.70
2022-11-29T00:06:22.939Z,5.60
2022-11-29T00:08:50.501Z,5.60
2022-11-29T00:11:21.248Z,5.60
2022-11-29T00:13:48.286Z,5.60
2022-11-29T00:16:15.208Z,5.60
2022-11-29T00:18:43.802Z,5.60
2022-11-29T00:21:10.623Z,5.60
2022-11-29T00:23:37.670Z,5.60
2022-11-29T00:26:06.111Z,5.60
2022-11-29T00:28:34.297Z,5.50
2022-11-29T00:31:01.844Z,5.60
2022-11-29T00:33:29.426Z,5.50
2022-11-29T00:36:00.888Z,5.50
2022-11-29T00:38:28.110Z,5.60
2022-11-29T00:40:55.013Z,5.50
2022-11-29T00:43:24.085Z,5.50
2022-11-29T00:45:51.059Z,5.50
2022-11-29T00:48:18.932Z,5.50
2022-11-29T00:50:46.170Z,5.50
2022-11-29T00:53:17.507Z,5.50
2022-11-29T00:55:48.050Z,5.50
2022-11-29T00:58:15.222Z,5.50
2022-11-29T01:00:42.302Z,5.50
2022-11-29T01:03:10.135Z,5.50
2022-11-29T01:05:37.489Z,5.50
2022-11-29T01:08:05.264Z,5.50
2022-11-29T01:10:34.475Z,5.50
2022-11-29T01:13:01.761Z,5.40
2022-11-29T01:15:29.068Z,5.40
2022-11-29T01:17:55.918Z,5.40
2022-11-29T01:20:23.194Z,5.40
2022-11-29T01:22:50.248Z,5.40
2022-11-29T01:25:17.401Z,5.40
2022-11-29T01:27:46.703Z,5.40
2022-11-29T01:30:16.052Z,5.40
2022-11-29T01:32:43.264Z,5.40
2022-11-29T01:35:10.210Z,5.40
2022-11-29T01:37:37.273Z,5.40
2022-11-29T01:40:06.056Z,5.40
2022-11-29T01:42:33.217Z,5.30
2022-11-29T01:45:20.235Z,5.30
2022-11-29T01:47:51.102Z,5.30
2022-11-29T01:50:19.910Z,5.30
2022-11-29T01:52:48.781Z,5.30
2022-11-29T01:55:18.335Z,5.30
2022-11-29T01:57:45.654Z,5.30
2022-11-29T02:00:18.632Z,5.30
2022-11-29T02:02:53.638Z,5.30
2022-11-29T02:05:22.558Z,5.20
2022-11-29T02:07:54.171Z,5.20
2022-11-29T02:10:30.624Z,5.20
2022-11-29T02:13:09.093Z,5.20
2022-11-29T02:15:49.311Z,5.20
2022-11-29T02:18:32.561Z,5.20
2022-11-29T02:21:36.506Z,5.20
2022-11-29T02:24:31.356Z,5.10
2022-11-29T02:27:30.739Z,5.10
2022-11-29T02:30:38.697Z,5.10
2022-11-29T02:33:54.944Z,5.10
2022-11-29T02:36:59.466Z,5.10
2022-11-29T02:40:16.682Z,5.10
2022-11-29T02:43:14.951Z,5.10
2022-11-29T02:46:02.285Z,5.10
2022-11-29T02:48:56.358Z,5.10
2022-11-29T02:51:41.093Z,5.10
2022-11-29T02:54:21.172Z,5.10
2022-11-29T02:56:56.590Z,5.10
2022-11-29T02:59:42.607Z,5.10
2022-11-29T03:02:32.432Z,5.10
2022-11-29T03:05:12.763Z,5.10
2022-11-29T03:07:51.782Z,5.10
2022-11-29T03:10:35.189Z,5.10
2022-11-29T03:13:10.286Z,5.10
2022-11-29T03:15:51.344Z,5.10
2022-11-29T03:18:36.684Z,5.10
2022-11-29T03:21:19.750Z,5.10
2022-11-29T03:23:50.835Z,5.20
2022-11-29T03:26:26.700Z,5.20
2022-11-29T03:29:02.927Z,5.20
2022-11-29T03:31:35.424Z,5.20
2022-11-29T03:34:19.061Z,5.20
2022-11-29T03:36:58.058Z,5.20
2022-11-29T03:39:41.969Z,5.20
2022-11-29T03:42:26.121Z,5.20
2022-11-29T03:45:03.357Z,5.20
2022-11-29T03:47:38.556Z,5.20
2022-11-29T03:50:11.502Z,5.20
2022-11-29T03:52:50.204Z,5.20
2022-11-29T03:55:33.264Z,5.20
2022-11-29T03:58:20.632Z,5.20
2022-11-29T04:01:25.659Z,5.20
2022-11-29T04:04:27.857Z,5.20
2022-11-29T04:07:12.407Z,5.10
2022-11-29T04:10:15.742Z,5.10
2022-11-29T04:13:44.193Z,5.10
2022-11-29T04:17:05.197Z,5.10
2022-11-29T04:20:20.942Z,5.10
2022-11-29T04:23:31.867Z,5.10
2022-11-29T04:26:44.979Z,5.10
2022-11-29T04:29:30.019Z,5.10
2022-11-29T04:32:46.851Z,5.20
2022-11-29T04:35:41.743Z,5.20
2022-11-29T04:38:56.485Z,5.20
2022-11-29T04:42:08.123Z,5.10
2022-11-29T04:44:59.173Z,5.10
2022-11-29T04:47:57.801Z,5.10
2022-11-29T04:50:46.994Z,5.10
2022-11-29T04:53:33.396Z,5.20
2022-11-29T04:56:15.273Z,5.20
2022-11-29T04:58:54.932Z,5.20
2022-11-29T05:01:35.727Z,5.20
2022-11-29T05:04:15.877Z,5.20
2022-11-29T05:06:56.596Z,5.20
2022-11-29T05:09:37.707Z,5.20
2022-11-29T05:12:17.322Z,5.10
2022-11-29T05:15:14.367Z,5.10
2022-11-29T05:17:56.486Z,5.10
2022-11-29T05:20:38.963Z,5.10
2022-11-29T05:23:19.890Z,5.10
2022-11-29T05:25:55.481Z,5.10
2022-11-29T05:28:32.441Z,5.10
2022-11-29T05:31:21.553Z,5.10
2022-11-29T05:34:14.374Z,5.10
2022-11-29T05:36:56.450Z,5.10
2022-11-29T05:39:49.083Z,5.10
2022-11-29T05:42:34.757Z,5.10
2022-11-29T05:45:12.813Z,5.10
2022-11-29T05:47:52.876Z,5.10
2022-11-29T05:50:28.407Z,5.10
2022-11-29T05:53:21.178Z,5.10
2022-11-29T05:56:02.951Z,5.10
2022-11-29T05:58:42.431Z,5.10
2022-11-29T06:01:21.115Z,5.10
2022-11-29T06:04:02.077Z,5.10
2022-11-29T06:06:40.354Z,5.10
2022-11-29T06:09:19.174Z,5.10
2022-11-29T06:11:53.156Z,5.10
2022-11-29T06:15:06.123Z,5.10
2022-11-29T06:18:02.555Z,5.10
2022-11-29T06:20:54.975Z,5.10
2022-11-29T06:23:52.765Z,5.00
2022-11-29T06:26:43.796Z,5.00
2022-11-29T06:29:33.022Z,5.00
2022-11-29T06:32:13.285Z,5.00
2022-11-29T06:34:52.516Z,5.00
2022-11-29T06:37:27.886Z,5.00
2022-11-29T06:39:58.837Z,5.00
2022-11-29T06:42:25.791Z,5.00
2022-11-29T06:44:53.930Z,5.00
2022-11-29T06:47:28.418Z,5.10
2022-11-29T06:53:08.428Z,5.00
2022-11-29T06:55:45.709Z,5.00
2022-11-29T06:58:35.962Z,5.00
2022-11-29T07:01:19.984Z,5.00
2022-11-29T07:04:15.028Z,5.00
2022-11-29T07:06:42.859Z,5.00
2022-11-29T07:09:16.834Z,5.00
2022-11-29T07:11:46.312Z,5.00
2022-11-29T07:14:14.684Z,5.00
2022-11-29T07:16:57.446Z,5.00
2022-11-29T07:19:41.020Z,5.00
2022-11-29T07:22:29.123Z,5.00
2022-11-29T07:25:10.130Z,5.10
2022-11-29T07:27:47.159Z,5.10
2022-11-29T07:30:20.227Z,5.10
2022-11-29T07:33:01.963Z,5.10
2022-11-29T07:35:41.655Z,5.10
2022-11-29T07:38:19.858Z,5.20
2022-11-29T07:41:00.753Z,5.10
2022-11-29T07:43:42.273Z,5.20
2022-11-29T07:46:09.888Z,5.20
2022-11-29T07:48:36.913Z,5.20
2022-11-29T07:51:04.334Z,5.20
2022-11-29T07:53:31.364Z,5.20
2022-11-29T07:56:00.134Z,5.20
2022-11-29T07:58:27.707Z,5.20
2022-11-29T08:00:54.809Z,5.30
2022-11-29T08:03:21.907Z,5.30
2022-11-29T08:05:49.072Z,5.30
2022-11-29T08:08:16.634Z,5.30
2022-11-29T08:10:46.852Z,5.40
2022-11-29T08:13:19.848Z,5.40
2022-11-29T08:15:48.636Z,5.40
2022-11-29T08:18:16.942Z,5.40
2022-11-29T08:20:44.502Z,5.40
2022-11-29T08:23:13.785Z,5.40
2022-11-29T08:25:41.265Z,5.50
2022-11-29T08:28:12.107Z,5.50
2022-11-29T08:30:40.789Z,5.60
2022-11-29T08:33:07.833Z,5.60
2022-11-29T08:35:35.514Z,5.60
2022-11-29T08:38:02.783Z,5.60
2022-11-29T08:40:29.732Z,5.60
2022-11-29T08:42:57.901Z,5.60
2022-11-29T08:45:25.210Z,5.60
2022-11-29T08:47:53.946Z,5.70
2022-11-29T08:50:21.201Z,5.70
2022-11-29T08:52:50.094Z,5.70
2022-11-29T08:55:17.970Z,5.80
2022-11-29T08:57:44.917Z,5.80
2022-11-29T09:00:14.132Z,5.80
2022-11-29T09:02:41.343Z,5.80
2022-11-29T09:05:11.823Z,5.80
2022-11-29T09:07:39.533Z,5.90
2022-11-29T09:10:09.182Z,5.80
2022-11-29T09:12:37.480Z,5.90
2022-11-29T09:15:06.870Z,5.90
2022-11-29T09:17:33.824Z,5.90
2022-11-29T09:20:00.877Z,5.90
2022-11-29T09:22:29.328Z,6.00
2022-11-29T09:24:56.440Z,6.00
2022-11-29T09:27:23.542Z,6.00
2022-11-29T09:29:50.516Z,6.00
2022-11-29T09:32:19.044Z,6.00
2022-11-29T09:34:49.864Z,6.00
2022-11-29T09:37:16.741Z,6.00
2022-11-29T09:39:45.199Z,6.00
2022-11-29T09:42:35.279Z,5.90
2022-11-29T09:45:07.847Z,5.90
2022-11-29T09:48:01.880Z,5.90
2022-11-29T09:50:34.588Z,5.90
2022-11-29T09:53:21.408Z,5.90
2022-11-29T09:56:04.615Z,5.90
2022-11-29T09:58:41.185Z,5.90
2022-11-29T10:01:17.406Z,5.90
2022-11-29T10:03:50.136Z,6.00
2022-11-29T10:06:28.412Z,6.00
2022-11-29T10:09:04.208Z,6.00
2022-11-29T10:11:42.959Z,6.00
2022-11-29T10:14:17.371Z,5.90
2022-11-29T10:16:51.946Z,5.90
2022-11-29T10:19:27.831Z,5.90
2022-11-29T10:22:03.291Z,6.00
2022-11-29T10:24:33.387Z,6.00
2022-11-29T10:27:02.633Z,5.90
2022-11-29T10:29:29.643Z,6.00
2022-11-29T10:31:57.822Z,6.00
2022-11-29T10:34:30.817Z,6.00
2022-11-29T10:36:59.693Z,6.00
2022-11-29T10:39:35.936Z,6.00
2022-11-29T10:42:06.805Z,6.10
2022-11-29T10:44:34.849Z,6.10
2022-11-29T10:47:10.453Z,6.10
2022-11-29T10:49:38.387Z,6.10
2022-11-29T10:52:10.795Z,6.20
2022-11-29T10:54:42.306Z,6.20
2022-11-29T10:57:16.930Z,6.20
2022-11-29T11:00:00.892Z,6.20
2022-11-29T11:02:28.584Z,6.20
2022-11-29T11:04:56.674Z,6.20
2022-11-29T11:07:28.832Z,6.20
2022-11-29T11:09:58.531Z,6.20
2022-11-29T11:12:30.511Z,6.20
2022-11-29T11:15:26.816Z,6.20
2022-11-29T11:18:00.036Z,6.30
2022-11-29T11:20:31.663Z,6.30
2022-11-29T11:23:02.527Z,6.30
2022-11-29T11:25:33.475Z,6.30
2022-11-29T11:28:18.926Z,6.30
2022-11-29T11:30:52.636Z,6.30
2022-11-29T11:33:28.591Z,6.30
2022-11-29T11:36:10.453Z,6.30
2022-11-29T11:38:40.956Z,6.30
2022-11-29T11:41:21.162Z,6.30
2022-11-29T11:43:58.261Z,6.30
2022-11-29T11:46:48.961Z,6.40
2022-11-29T11:49:35.526Z,6.40
2022-11-29T11:52:06.578Z,6.40
2022-11-29T11:54:36.804Z,6.40
2022-11-29T11:57:04.129Z,6.30
2022-11-29T11:59:32.653Z,6.30
2022-11-29T12:01:59.690Z,6.30
2022-11-29T12:05:01.643Z,6.40
2022-11-29T12:08:06.920Z,6.30
2022-11-29T12:10:32.702Z,6.30
2022-11-29T12:13:01.802Z,6.40
2022-11-29T12:15:36.850Z,6.40
2022-11-29T12:18:11.564Z,6.40
2022-11-29T12:20:46.442Z,6.40
2022-11-29T12:23:31.130Z,6.30
2022-11-29T12:26:06.020Z,6.30
2022-11-29T12:28:38.541Z,6.30
2022-11-29T12:31:25.501Z,6.30
2022-11-29T12:34:03.057Z,6.30
2022-11-29T12:36:41.478Z,6.30
2022-11-29T12:39:33.688Z,6.30
2022-11-29T12:42:14.885Z,6.30
2022-11-29T12:44:55.519Z,6.30
2022-11-29T12:47:39.605Z,6.20
2022-11-29T12:50:34.179Z,6.20
2022-11-29T12:54:02.366Z,6.20
2022-11-29T12:56:37.909Z,6.30
2022-11-29T12:59:25.845Z,6.30
2022-11-29T13:02:15.844Z,6.30
2022-11-29T13:05:01.247Z,6.30
2022-11-29T13:07:39.896Z,6.30
2022-11-29T13:10:27.151Z,6.30
2022-11-29T13:12:58.459Z,6.30
2022-11-29T13:15:41.280Z,6.30
2022-11-29T13:18:22.588Z,6.30
2022-11-29T13:20:59.214Z,6.30
2022-11-29T13:23:45.677Z,6.30
2022-11-29T13:26:29.258Z,6.30
2022-11-29T13:28:58.843Z,6.30
2022-11-29T13:31:26.125Z,6.30
2022-11-29T13:34:01.643Z,6.30
2022-11-29T13:36:47.348Z,6.30
2022-11-29T13:39:32.547Z,6.30
2022-11-29T13:42:10.474Z,6.30
2022-11-29T13:44:46.713Z,6.30
2022-11-29T13:47:16.662Z,6.30
2022-11-29T13:49:56.856Z,6.30
2022-11-29T13:52:38.631Z,6.30
2022-11-29T13:55:23.263Z,6.30
2022-11-29T13:58:15.312Z,6.20
2022-11-29T14:00:51.184Z,6.30
2022-11-29T14:03:32.494Z,6.30
2022-11-29T14:06:14.548Z,6.20
2022-11-29T14:09:30.566Z,6.20
2022-11-29T14:12:17.799Z,6.20
2022-11-29T14:14:53.796Z,6.20
2022-11-29T14:17:48.066Z,6.20
2022-11-29T14:20:57.972Z,6.20
2022-11-29T14:23:38.678Z,6.20
2022-11-29T14:26:30.631Z,6.20
2022-11-29T14:28:59.197Z,6.20
2022-11-29T14:31:55.358Z,6.20
2022-11-29T14:34:53.640Z,6.20
2022-11-29T14:37:47.435Z,6.10
2022-11-29T14:40:33.439Z,6.20
2022-11-29T14:43:15.259Z,6.20
2022-11-29T14:45:43.288Z,6.10
2022-11-29T14:48:27.191Z,6.10
2022-11-29T14:51:09.578Z,6.10
2022-11-29T14:58:16.787Z,6.10
2022-11-29T15:01:34.106Z,6.10
2022-11-29T15:04:07.323Z,6.00
2022-11-29T15:06:43.284Z,6.00
2022-11-29T15:09:21.476Z,6.00
2022-11-29T15:11:52.775Z,6.00
2022-11-29T15:14:34.782Z,6.00
2022-11-29T15:17:27.128Z,6.00
2022-11-29T15:20:46.168Z,6.00
2022-11-29T15:23:16.777Z,6.00
2022-11-29T15:25:49.041Z,6.00
2022-11-29T15:28:21.217Z,6.00
2022-11-29T15:31:02.647Z,5.90
2022-11-29T15:33:30.031Z,5.90
2022-11-29T15:36:06.380Z,5.90
2022-11-29T15:38:44.126Z,5.90
2022-11-29T15:41:27.700Z,5.90
2022-11-29T15:43:59.170Z,5.90
2022-11-29T15:46:31.957Z,5.80
2022-11-29T15:49:18.629Z,5.80
2022-11-29T15:51:49.088Z,5.80
2022-11-29T15:54:29.446Z,5.80
2022-11-29T15:57:01.625Z,5.80
2022-11-29T15:59:36.278Z,5.80
2022-11-29T16:02:17.276Z,5.80
2022-11-29T16:04:47.317Z,5.80
2022-11-29T16:07:16.028Z,5.80
2022-11-29T16:09:50.514Z,5.80
2022-11-29T16:12:18.776Z,5.80
2022-11-29T16:14:52.870Z,5.80
2022-11-29T16:17:32.544Z,5.80
2022-11-29T16:20:24.177Z,5.80
2022-11-29T16:23:13.392Z,5.80
2022-11-29T16:26:02.052Z,5.80
2022-11-29T16:28:34.509Z,5.80
2022-11-29T16:31:01.371Z,5.80
2022-11-29T16:33:29.944Z,5.80
2022-11-29T16:36:13.612Z,5.80
2022-11-29T16:38:46.133Z,5.80
2022-11-29T16:41:24.849Z,5.80
2022-11-29T16:43:55.998Z,5.80
2022-11-29T16:46:34.537Z,5.80
2022-11-29T16:49:31.752Z,5.80
2022-11-29T16:51:59.131Z,5.80
2022-11-29T16:54:27.957Z,5.90
2022-11-29T16:56:57.317Z,5.90
2022-11-29T17:02:21.642Z,5.80
2022-11-29T17:05:06.570Z,5.80
2022-11-29T17:07:43.202Z,5.90
2022-11-29T17:10:17.988Z,5.90
2022-11-29T17:12:48.179Z,5.90
2022-11-29T17:15:15.968Z,5.90
2022-11-29T17:17:46.562Z,5.90
2022-11-29T17:20:16.437Z,5.90
2022-11-29T17:22:43.617Z,5.90
2022-11-29T17:25:11.775Z,5.90
2022-11-29T17:27:41.687Z,5.90
2022-11-29T17:30:10.187Z,5.90
2022-11-29T17:32:37.848Z,5.90
2022-11-29T17:35:05.728Z,5.90
2022-11-29T17:37:35.740Z,5.80
2022-11-29T17:40:02.834Z,5.80
2022-11-29T17:42:29.674Z,5.80
2022-11-29T17:44:57.203Z,5.80
2022-11-29T17:47:24.187Z,5.80
2022-11-29T17:49:51.428Z,5.80
2022-11-29T17:52:18.440Z,5.80
2022-11-29T17:54:46.765Z,5.80
2022-11-29T17:57:13.695Z,5.80
2022-11-29T17:59:40.970Z,5.70
2022-11-29T18:02:09.892Z,5.70
2022-11-29T18:04:37.039Z,5.70
2022-11-29T18:07:04.296Z,5.70
2022-11-29T18:09:33.567Z,5.70
2022-11-29T18:12:03.465Z,5.70
2022-11-29T18:14:33.045Z,5.80
2022-11-29T18:17:00.831Z,5.80
2022-11-29T18:19:27.853Z,5.70
2022-11-29T18:21:54.978Z,5.80
2022-11-29T18:24:22.086Z,5.70
2022-11-29T18:26:48.892Z,5.70
2022-11-29T18:29:17.465Z,5.70
2022-11-29T18:31:47.099Z,5.70
2022-11-29T18:34:15.159Z,5.70
2022-11-29T18:36:46.302Z,5.70
2022-11-29T18:39:18.569Z,5.70
2022-11-29T18:41:47.478Z,5.70
2022-11-29T18:44:41.467Z,5.70
2022-11-29T18:47:18.872Z,5.70
2022-11-29T18:49:46.081Z,5.70
2022-11-29T18:52:12.931Z,5.70
2022-11-29T18:54:40.494Z,5.70
2022-11-29T18:57:07.346Z,5.70
2022-11-29T18:59:38.339Z,5.70
2022-11-29T19:02:06.940Z,5.70
2022-11-29T19:04:35.517Z,5.70
2022-11-29T19:07:02.727Z,5.70
2022-11-29T19:09:29.992Z,5.60
2022-11-29T19:11:56.827Z,5.60
2022-11-29T19:14:23.683Z,5.60
2022-11-29T19:16:51.050Z,5.60
2022-11-29T19:19:19.630Z,5.60
2022-11-29T19:21:47.395Z,5.60
2022-11-29T19:24:16.128Z,5.60
2022-11-29T19:26:46.319Z,5.60
2022-11-29T19:29:14.313Z,5.60
2022-11-29T19:31:41.958Z,5.60
2022-11-29T19:34:09.325Z,5.60
2022-11-29T19:36:40.765Z,5.60
2022-11-29T19:39:10.809Z,5.60
2022-11-29T19:41:38.074Z,5.60
2022-11-29T19:44:07.766Z,5.60
2022-11-29T19:46:38.472Z,5.60
2022-11-29T19:49:08.334Z,5.50
2022-11-29T19:54:28.833Z,5.60
2022-11-29T19:56:55.802Z,5.60
2022-11-29T19:59:23.036Z,5.60
2022-11-29T20:01:50.396Z,5.60
2022-11-29T20:04:17.441Z,5.60
2022-11-29T20:06:45.641Z,5.60
2022-11-29T20:09:14.037Z,5.60
2022-11-29T20:11:43.025Z,5.60
2022-11-29T20:14:12.516Z,5.60
2022-11-29T20:16:39.474Z,5.60
2022-11-29T20:19:12.657Z,5.60
2022-11-29T20:21:43.629Z,5.60
2022-11-29T20:24:12.598Z,5.60
2022-11-29T20:26:43.873Z,5.60
2022-11-29T20:29:12.844Z,5.60
2022-11-29T20:31:47.771Z,5.50
2022-11-29T20:34:17.816Z,5.50
2022-11-29T20:37:23.485Z,5.50
2022-11-29T20:39:57.064Z,5.50
2022-11-29T20:42:58.082Z,5.50
2022-11-29T20:45:26.278Z,5.50
2022-11-29T20:47:58.308Z,5.50
2022-11-29T20:50:28.853Z,5.50
2022-11-29T20:53:20.484Z,5.50
2022-11-29T20:55:48.752Z,5.50
2022-11-29T20:58:17.738Z,5.50
2022-11-29T21:00:44.808Z,5.50
2022-11-29T21:03:13.567Z,5.50
2022-11-29T21:05:40.642Z,5.50
2022-11-29T21:08:07.588Z,5.50
2022-11-29T21:10:34.659Z,5.50
2022-11-29T21:13:02.416Z,5.60
2022-11-29T21:15:32.233Z,5.60
2022-11-29T21:18:00.211Z,5.60
2022-11-29T21:20:28.062Z,5.60
2022-11-29T21:23:05.472Z,5.60
2022-11-29T21:25:44.690Z,5.60
2022-11-29T21:28:15.027Z,5.60
2022-11-29T21:30:44.631Z,5.60
2022-11-29T21:33:12.643Z,5.60
2022-11-29T21:35:40.111Z,5.60
2022-11-29T21:38:18.886Z,5.60
2022-11-29T21:40:47.503Z,5.50
2022-11-29T21:43:14.527Z,5.50
2022-11-29T21:45:43.144Z,5.50
2022-11-29T21:48:10.271Z,5.50
2022-11-29T21:50:37.132Z,5.50
2022-11-29T21:53:04.678Z,5.50
2022-11-29T21:55:32.383Z,5.50
2022-11-29T21:57:59.719Z,5.50
2022-11-29T22:00:26.675Z,5.50
2022-11-29T22:02:56.403Z,5.50
2022-11-29T22:05:23.349Z,5.50
2022-11-29T22:07:50.245Z,5.50
2022-11-29T22:10:17.404Z,5.50
2022-11-29T22:12:51.987Z,5.50
2022-11-29T22:15:24.537Z,5.50
2022-11-29T22:17:52.838Z,5.50
2022-11-29T22:20:21.845Z,5.50
2022-11-29T22:22:51.762Z,5.50
2022-11-29T22:25:21.678Z,5.50
2022-11-29T22:27:49.487Z,5.50
2022-11-29T22:30:17.110Z,5.50
2022-11-29T22:32:43.920Z,5.50
2022-11-29T22:35:10.718Z,5.50
2022-11-29T22:37:38.983Z,5.50
2022-11-29T22:40:07.875Z,5.50
2022-11-29T22:42:34.840Z,5.50
2022-11-29T22:45:02.800Z,5.50
2022-11-29T22:47:32.054Z,5.50
2022-11-29T22:49:59.267Z,5.50
2022-11-29T22:52:27.359Z,5.50
2022-11-29T22:54:59.923Z,5.50
2022-11-29T22:57:29.909Z,5.50
2022-11-29T22:59:56.690Z,5.50
2022-11-29T23:02:23.785Z,5.50
2022-11-29T23:04:50.617Z,5.50
2022-11-29T23:07:17.571Z,5.60
2022-11-29T23:09:44.687Z,5.60
2022-11-29T23:12:13.266Z,5.60
2022-11-29T23:14:40.161Z,5.60
2022-11-29T23:17:07.013Z,5.60
2022-11-29T23:19:34.028Z,5.50
2022-11-29T23:22:00.827Z,5.50
2022-11-29T23:24:28.763Z,5.50
2022-11-29T23:26:56.460Z,5.50
2022-11-29T23:29:24.705Z,5.50
2022-11-29T23:31:51.703Z,5.50
2022-11-29T23:34:18.713Z,5.60
2022-11-29T23:36:51.187Z,5.60
2022-11-29T23:39:20.222Z,5.50
2022-11-29T23:41:47.370Z,5.50
2022-11-29T23:44:14.183Z,5.50
2022-11-29T23:46:42.674Z,5.50
2022-11-29T23:49:09.738Z,5.50
2022-11-29T23:54:28.299Z,5.60
2022-11-29T23:56:55.207Z,5.60
2022-11-29T23:59:22.189Z,5.60
